createdAt,value
2019-04-25T00:01:03.491Z,4.78
2019-04-25T00:03:33.525Z,4.40
2019-04-25T00:06:02.364Z,4.85
2019-04-25T00:08:31.220Z,4.45
2019-04-25T00:11:01.624Z,3.75
2019-04-25T00:13:31.737Z,4.20
2019-04-25T00:16:01.771Z,3.52
2019-04-25T00:18:31.794Z,4.15
2019-04-25T00:21:05.030Z,4.20
2019-04-25T00:23:34.360Z,3.72
2019-04-25T00:26:04.376Z,3.15
2019-04-25T00:28:32.775Z,3.40
2019-04-25T00:31:02.113Z,2.98
2019-04-25T00:33:31.457Z,3.42
2019-04-25T00:36:00.077Z,3.33
2019-04-25T00:38:28.449Z,3.12
2019-04-25T00:40:56.750Z,3.50
2019-04-25T00:43:25.217Z,3.30
2019-04-25T00:45:53.621Z,3.20
2019-04-25T00:48:22.298Z,2.83
2019-04-25T00:50:52.077Z,3.17
2019-04-25T00:53:21.204Z,3.10
2019-04-25T00:55:51.613Z,3.30
2019-04-25T00:58:21.571Z,2.92
2019-04-25T01:01:09.774Z,3.25
2019-04-25T01:03:38.141Z,2.75
2019-04-25T01:06:06.562Z,3.08
2019-04-25T01:08:34.994Z,2.75
2019-04-25T01:11:03.453Z,2.80
2019-04-25T01:13:32.170Z,3.00
2019-04-25T01:16:03.695Z,3.00
2019-04-25T01:18:31.441Z,2.92
2019-04-25T01:21:00.014Z,2.77
2019-04-25T01:23:28.406Z,3.10
2019-04-25T01:25:56.892Z,3.33
2019-04-25T01:28:25.249Z,2.92
2019-04-25T01:30:54.794Z,3.12
2019-04-25T01:33:23.898Z,3.12
2019-04-25T01:35:57.060Z,3.33
2019-04-25T01:38:35.935Z,3.25
2019-04-25T01:41:12.212Z,3.08
2019-04-25T01:43:43.643Z,3.17
2019-04-25T01:46:13.357Z,3.52
2019-04-25T01:48:43.365Z,3.42
2019-04-25T01:51:11.845Z,3.37
2019-04-25T01:53:40.197Z,2.90
2019-04-25T01:56:08.516Z,3.40
2019-04-25T01:58:36.865Z,3.40
2019-04-25T02:01:05.289Z,2.90
2019-04-25T02:03:35.647Z,3.45
2019-04-25T02:06:05.014Z,3.50
2019-04-25T02:08:33.992Z,3.30
2019-04-25T02:11:06.968Z,3.60
2019-04-25T02:13:35.830Z,4.12
2019-04-25T02:16:05.479Z,4.10
2019-04-25T02:18:33.882Z,3.40
2019-04-25T02:21:04.368Z,3.95
2019-04-25T02:23:34.071Z,3.40
2019-04-25T02:26:13.755Z,3.77
2019-04-25T02:28:33.842Z,3.62
2019-04-25T02:31:07.779Z,3.37
2019-04-25T02:33:34.032Z,3.42
2019-04-25T02:36:05.004Z,3.00
2019-04-25T02:38:34.212Z,3.27
2019-04-25T02:41:08.379Z,3.30
2019-04-25T02:43:35.023Z,3.40
2019-04-25T02:46:15.041Z,3.10
2019-04-25T02:48:59.567Z,3.45
2019-04-25T02:51:45.176Z,3.20
2019-04-25T02:54:14.071Z,3.27
2019-04-25T02:56:46.331Z,3.52
2019-04-25T02:59:12.617Z,3.55
2019-04-25T03:01:40.997Z,3.92
2019-04-25T03:04:11.404Z,4.10
2019-04-25T03:06:39.545Z,3.27
2019-04-25T03:09:10.016Z,3.77
2019-04-25T03:11:38.531Z,3.70
2019-04-25T03:14:09.487Z,4.25
2019-04-25T03:16:36.984Z,4.15
2019-04-25T03:19:14.101Z,4.20
2019-04-25T03:21:45.165Z,4.60
2019-04-25T03:24:16.638Z,4.28
2019-04-25T03:26:44.335Z,4.45
2019-04-25T03:29:13.675Z,4.50
2019-04-25T03:31:44.754Z,5.00
2019-04-25T03:34:16.930Z,4.33
2019-04-25T03:36:43.749Z,4.60
2019-04-25T03:39:14.458Z,4.50
2019-04-25T03:41:43.851Z,4.67
2019-04-25T03:44:13.959Z,5.25
2019-04-25T03:46:43.833Z,5.97
2019-04-25T03:49:13.884Z,5.17
2019-04-25T03:51:43.861Z,6.15
2019-04-25T03:54:14.106Z,5.70
2019-04-25T03:56:53.232Z,5.00
2019-04-25T03:59:14.669Z,6.12
2019-04-25T04:01:43.960Z,5.70
2019-04-25T04:04:14.351Z,7.12
2019-04-25T04:06:44.051Z,6.20
2019-04-25T04:09:14.235Z,5.67
2019-04-25T04:11:43.484Z,5.70
2019-04-25T04:14:12.962Z,6.55
2019-04-25T04:16:44.308Z,6.70
2019-04-25T04:19:14.738Z,7.10
2019-04-25T04:21:48.258Z,7.40
2019-04-25T04:24:27.209Z,7.87
2019-04-25T04:27:10.708Z,8.08
2019-04-25T04:29:39.204Z,8.30
2019-04-25T04:32:08.592Z,10.68
2019-04-25T04:34:37.047Z,9.80
2019-04-25T04:37:05.353Z,10.45
2019-04-25T04:39:33.924Z,11.63
2019-04-25T04:42:03.813Z,10.98
2019-04-25T04:44:34.171Z,10.32
2019-04-25T04:47:03.815Z,11.10
2019-04-25T04:49:34.079Z,15.78
2019-04-25T04:52:06.132Z,15.53
2019-04-25T04:54:34.293Z,17.25
2019-04-25T04:57:16.677Z,14.20
2019-04-25T04:59:33.769Z,16.10
2019-04-25T05:02:15.840Z,16.50
2019-04-25T05:04:56.609Z,21.40
2019-04-25T05:07:43.938Z,20.40
2019-04-25T05:10:14.694Z,17.40
2019-04-25T05:12:43.749Z,21.23
2019-04-25T05:15:16.226Z,23.10
2019-04-25T05:17:44.045Z,24.87
2019-04-25T05:20:13.397Z,22.80
2019-04-25T05:22:44.417Z,22.05
2019-04-25T05:25:15.298Z,19.48
2019-04-25T05:27:57.808Z,20.40
2019-04-25T05:30:19.353Z,22.20
2019-04-25T05:32:47.926Z,20.05
2019-04-25T05:35:16.596Z,19.12
2019-04-25T05:37:45.026Z,16.93
2019-04-25T05:40:14.745Z,17.37
2019-04-25T05:42:51.408Z,18.25
2019-04-25T05:45:21.485Z,15.32
2019-04-25T05:47:49.925Z,16.30
2019-04-25T05:50:18.338Z,16.30
2019-04-25T05:52:46.734Z,17.82
2019-04-25T05:55:17.308Z,16.97
2019-04-25T05:57:49.858Z,15.80
2019-04-25T06:00:16.639Z,15.95
2019-04-25T06:02:46.228Z,16.42
2019-04-25T06:05:14.729Z,16.48
2019-04-25T06:07:43.296Z,17.40
2019-04-25T06:10:14.398Z,15.75
2019-04-25T06:12:47.649Z,19.45
2019-04-25T06:15:18.322Z,16.27
2019-04-25T06:17:48.614Z,17.57
2019-04-25T06:20:19.972Z,15.15
2019-04-25T06:22:50.090Z,15.05
2019-04-25T06:25:21.334Z,12.18
2019-04-25T06:27:58.889Z,12.50
2019-04-25T06:30:24.945Z,12.65
2019-04-25T06:32:53.374Z,14.85
2019-04-25T06:35:24.484Z,14.15
2019-04-25T06:37:53.502Z,14.87
2019-04-25T06:40:22.510Z,15.45
2019-04-25T06:42:53.646Z,15.38
2019-04-25T06:45:36.198Z,13.65
2019-04-25T06:48:09.260Z,15.35
2019-04-25T06:50:37.677Z,16.02
2019-04-25T06:53:06.128Z,13.32
2019-04-25T06:55:34.492Z,14.28
2019-04-25T06:58:10.230Z,14.35
2019-04-25T07:00:40.540Z,12.37
2019-04-25T07:03:04.250Z,11.35
2019-04-25T07:05:39.592Z,11.85
2019-04-25T07:08:03.325Z,12.98
2019-04-25T07:10:33.587Z,11.00
2019-04-25T07:13:01.941Z,13.03
2019-04-25T07:15:30.368Z,12.63
2019-04-25T07:17:58.733Z,11.45
2019-04-25T07:20:28.320Z,10.05
2019-04-25T07:22:56.828Z,11.85
2019-04-25T07:25:27.745Z,13.05
2019-04-25T07:28:31.116Z,13.08
2019-04-25T07:31:16.292Z,13.78
2019-04-25T07:33:49.075Z,11.12
2019-04-25T07:36:17.666Z,13.88
2019-04-25T07:38:46.062Z,13.28
2019-04-25T07:41:16.251Z,12.55
2019-04-25T07:43:44.504Z,11.75
2019-04-25T07:46:13.517Z,14.50
2019-04-25T07:48:43.647Z,11.83
2019-04-25T07:51:14.726Z,12.30
2019-04-25T07:53:43.547Z,10.98
2019-04-25T07:56:14.103Z,13.50
2019-04-25T07:58:50.515Z,13.50
2019-04-25T08:01:13.937Z,12.75
2019-04-25T08:03:43.831Z,12.88
2019-04-25T08:06:13.725Z,12.85
2019-04-25T08:08:43.617Z,11.03
2019-04-25T08:11:13.854Z,11.73
2019-04-25T08:13:59.228Z,11.05
2019-04-25T08:16:30.065Z,12.98
2019-04-25T08:18:59.444Z,12.05
2019-04-25T08:21:27.758Z,12.90
2019-04-25T08:23:56.121Z,11.97
2019-04-25T08:26:24.542Z,11.45
2019-04-25T08:28:57.495Z,11.75
2019-04-25T08:31:23.475Z,11.88
2019-04-25T08:33:53.466Z,12.33
2019-04-25T08:36:23.379Z,12.53
2019-04-25T08:38:53.473Z,12.25
2019-04-25T08:41:23.804Z,12.80
2019-04-25T08:43:54.303Z,13.55
2019-04-25T08:46:23.538Z,13.43
2019-04-25T08:49:13.998Z,13.72
2019-04-25T08:51:44.533Z,14.60
2019-04-25T08:54:29.851Z,13.72
2019-04-25T08:56:59.865Z,12.78
2019-04-25T08:59:52.347Z,13.55
2019-04-25T09:02:32.952Z,14.18
2019-04-25T09:05:16.076Z,14.98
2019-04-25T09:07:45.361Z,17.42
2019-04-25T09:10:15.130Z,16.62
2019-04-25T09:12:44.286Z,16.67
2019-04-25T09:15:14.163Z,18.40
2019-04-25T09:17:45.707Z,18.65
2019-04-25T09:20:13.926Z,17.30
2019-04-25T09:22:44.232Z,19.27
2019-04-25T09:25:13.762Z,18.15
2019-04-25T09:27:43.330Z,17.80
2019-04-25T09:30:14.223Z,19.30
2019-04-25T09:32:44.076Z,17.62
2019-04-25T09:35:13.711Z,16.80
2019-04-25T09:37:44.816Z,17.30
2019-04-25T09:40:14.018Z,16.45
2019-04-25T09:42:44.727Z,16.82
2019-04-25T09:45:27.716Z,16.27
2019-04-25T09:48:06.755Z,16.87
2019-04-25T09:50:39.692Z,16.55
2019-04-25T09:53:15.465Z,17.35
2019-04-25T09:55:40.436Z,17.77
2019-04-25T09:58:10.463Z,16.25
2019-04-25T10:00:44.740Z,14.68
2019-04-25T10:03:13.632Z,16.80
2019-04-25T10:05:42.681Z,16.35
2019-04-25T10:08:11.202Z,16.15
2019-04-25T10:10:40.466Z,15.43
2019-04-25T10:13:08.937Z,16.17
2019-04-25T10:15:54.417Z,16.57
2019-04-25T10:18:23.384Z,15.80
2019-04-25T10:20:51.823Z,16.15
2019-04-25T10:23:20.357Z,15.83
2019-04-25T10:25:48.791Z,16.97
2019-04-25T10:28:17.245Z,16.32
2019-04-25T10:30:46.847Z,15.28
2019-04-25T10:33:15.390Z,17.23
2019-04-25T10:35:50.827Z,17.00
2019-04-25T10:38:14.597Z,16.50
2019-04-25T10:40:45.128Z,18.45
2019-04-25T10:43:15.006Z,18.42
2019-04-25T10:45:44.746Z,18.05
2019-04-25T10:48:13.980Z,17.50
2019-04-25T10:50:42.366Z,18.20
2019-04-25T10:53:10.804Z,17.25
2019-04-25T10:55:39.203Z,16.40
2019-04-25T10:58:08.733Z,17.98
2019-04-25T11:00:46.264Z,19.02
2019-04-25T11:03:28.424Z,18.70
2019-04-25T11:05:57.034Z,17.98
2019-04-25T11:08:25.389Z,19.85
2019-04-25T11:10:54.965Z,18.57
2019-04-25T11:13:23.325Z,18.77
2019-04-25T11:15:52.008Z,18.48
2019-04-25T11:18:20.430Z,18.52
2019-04-25T11:20:48.756Z,17.87
2019-04-25T11:23:17.191Z,18.95
2019-04-25T11:25:46.209Z,19.10
2019-04-25T11:28:14.674Z,18.12
2019-04-25T11:30:45.214Z,18.67
2019-04-25T11:33:14.380Z,18.70
2019-04-25T11:35:44.172Z,20.23
2019-04-25T11:38:14.482Z,18.77
2019-04-25T11:40:49.165Z,17.25
2019-04-25T11:43:17.289Z,17.15
2019-04-25T11:45:46.058Z,19.55
2019-04-25T11:48:15.270Z,16.65
2019-04-25T11:50:48.184Z,18.07
2019-04-25T11:53:13.712Z,19.95
2019-04-25T11:55:42.589Z,19.48
2019-04-25T11:58:11.093Z,19.17
2019-04-25T12:00:39.462Z,17.57
2019-04-25T12:03:08.345Z,20.95
2019-04-25T12:05:36.746Z,21.23
2019-04-25T12:08:05.393Z,20.15
2019-04-25T12:10:34.667Z,19.42
2019-04-25T12:13:03.116Z,18.32
2019-04-25T12:15:33.274Z,18.98
2019-04-25T12:18:01.810Z,19.52
2019-04-25T12:20:30.210Z,18.42
2019-04-25T12:23:08.055Z,20.02
2019-04-25T12:25:28.722Z,19.67
2019-04-25T12:27:57.117Z,20.02
2019-04-25T12:30:37.293Z,21.07
2019-04-25T12:32:55.590Z,20.12
2019-04-25T12:35:24.264Z,19.42
2019-04-25T12:37:54.008Z,19.15
2019-04-25T12:40:24.160Z,18.62
2019-04-25T12:42:52.861Z,19.73
2019-04-25T12:45:24.130Z,20.08
2019-04-25T12:47:57.304Z,19.60
2019-04-25T12:50:24.730Z,21.07
2019-04-25T12:52:54.702Z,18.85
2019-04-25T12:55:23.932Z,16.77
2019-04-25T12:57:54.898Z,18.80
2019-04-25T13:00:24.345Z,15.70
2019-04-25T13:02:53.896Z,17.82
2019-04-25T13:05:24.300Z,18.50
2019-04-25T13:07:56.681Z,17.07
2019-04-25T13:10:23.605Z,17.12
2019-04-25T13:12:55.264Z,18.05
2019-04-25T13:15:23.492Z,17.55
2019-04-25T13:17:53.638Z,16.70
2019-04-25T13:20:22.117Z,18.12
2019-04-25T13:22:50.613Z,16.77
2019-04-25T13:25:20.746Z,17.92
2019-04-25T13:27:54.023Z,16.87
2019-04-25T13:30:24.213Z,17.15
2019-04-25T13:32:54.178Z,18.87
2019-04-25T13:35:30.166Z,18.17
2019-04-25T13:37:59.334Z,17.73
2019-04-25T13:40:27.744Z,18.32
2019-04-25T13:42:56.456Z,18.07
2019-04-25T13:45:24.972Z,17.85
2019-04-25T13:47:53.395Z,19.37
2019-04-25T13:50:23.955Z,19.23
2019-04-25T13:52:53.272Z,19.77
2019-04-25T13:55:23.689Z,17.10
2019-04-25T13:57:53.099Z,17.52
2019-04-25T14:00:24.859Z,19.57
2019-04-25T14:02:53.896Z,18.32
2019-04-25T14:05:24.552Z,18.00
2019-04-25T14:07:53.164Z,16.35
2019-04-25T14:10:23.020Z,19.25
2019-04-25T14:12:53.486Z,18.52
2019-04-25T14:15:25.157Z,18.95
2019-04-25T14:18:13.771Z,17.70
2019-04-25T14:20:43.848Z,18.15
2019-04-25T14:23:13.472Z,16.30
2019-04-25T14:25:42.271Z,18.05
2019-04-25T14:28:11.721Z,18.65
2019-04-25T14:30:40.190Z,17.80
2019-04-25T14:33:08.565Z,17.40
2019-04-25T14:35:37.017Z,20.15
2019-04-25T14:38:05.368Z,17.77
2019-04-25T14:40:33.765Z,17.48
2019-04-25T14:43:02.320Z,18.20
2019-04-25T14:45:42.426Z,19.10
2019-04-25T14:48:00.918Z,19.10
2019-04-25T14:50:29.954Z,19.37
2019-04-25T14:52:58.388Z,18.85
2019-04-25T14:55:40.562Z,19.85
2019-04-25T14:58:16.456Z,17.07
2019-04-25T15:00:47.658Z,19.30
2019-04-25T15:03:16.123Z,18.07
2019-04-25T15:05:44.555Z,19.30
2019-04-25T15:08:12.962Z,18.90
2019-04-25T15:10:41.322Z,20.08
2019-04-25T15:13:11.020Z,17.90
2019-04-25T15:15:39.356Z,19.23
2019-04-25T15:18:09.424Z,17.00
2019-04-25T15:20:37.817Z,19.55
2019-04-25T15:23:06.242Z,19.90
2019-04-25T15:25:34.689Z,18.20
2019-04-25T15:28:03.022Z,19.77
2019-04-25T15:30:33.089Z,17.30
2019-04-25T15:33:01.475Z,17.75
2019-04-25T15:35:32.143Z,17.70
2019-04-25T15:38:17.588Z,18.12
2019-04-25T15:40:47.643Z,18.62
2019-04-25T15:43:23.459Z,15.95
2019-04-25T15:45:54.693Z,15.53
2019-04-25T15:48:23.142Z,15.58
2019-04-25T15:50:51.568Z,16.20
2019-04-25T15:53:19.888Z,16.00
2019-04-25T15:55:48.251Z,14.45
2019-04-25T15:58:17.760Z,13.62
2019-04-25T16:00:46.162Z,14.00
2019-04-25T16:03:14.755Z,13.03
2019-04-25T16:05:43.204Z,13.55
2019-04-25T16:08:11.720Z,13.48
2019-04-25T16:10:40.086Z,11.38
2019-04-25T16:13:08.516Z,10.65
2019-04-25T16:15:37.010Z,10.93
2019-04-25T16:18:06.854Z,9.40
2019-04-25T16:20:35.782Z,9.60
2019-04-25T16:23:04.801Z,9.78
2019-04-25T16:25:33.381Z,8.50
2019-04-25T16:28:01.843Z,8.48
2019-04-25T16:30:32.481Z,7.80
2019-04-25T16:33:00.955Z,7.80
2019-04-25T16:35:30.996Z,7.55
2019-04-25T16:37:59.589Z,7.00
2019-04-25T16:40:28.704Z,6.28
2019-04-25T16:42:57.377Z,7.28
2019-04-25T16:45:26.338Z,6.55
2019-04-25T16:47:54.783Z,6.12
2019-04-25T16:50:24.460Z,5.47
2019-04-25T16:52:52.815Z,6.08
2019-04-25T16:55:24.830Z,5.30
2019-04-25T16:57:53.228Z,5.50
2019-04-25T17:00:36.230Z,6.17
2019-04-25T17:03:04.880Z,6.50
2019-04-25T17:05:35.089Z,6.87
2019-04-25T17:08:03.508Z,6.85
2019-04-25T17:10:32.799Z,7.12
2019-04-25T17:13:01.306Z,8.40
2019-04-25T17:15:34.219Z,9.05
2019-04-25T17:18:06.858Z,9.58
2019-04-25T17:20:36.922Z,10.80
2019-04-25T17:23:06.576Z,11.33
2019-04-25T17:25:36.050Z,12.37
2019-04-25T17:28:04.904Z,12.23
2019-04-25T17:30:34.938Z,12.90
2019-04-25T17:33:07.689Z,13.60
2019-04-25T17:35:46.970Z,14.53
2019-04-25T17:38:19.396Z,14.60
2019-04-25T17:40:47.039Z,12.30
2019-04-25T17:43:15.538Z,15.28
2019-04-25T17:45:43.919Z,15.98
2019-04-25T17:48:12.270Z,16.12
2019-04-25T17:50:41.730Z,15.43
2019-04-25T17:53:10.207Z,16.05
2019-04-25T17:55:39.498Z,17.80
2019-04-25T17:58:08.119Z,18.85
2019-04-25T18:00:38.204Z,17.55
2019-04-25T18:03:08.525Z,17.12
2019-04-25T18:05:36.982Z,17.05
2019-04-25T18:08:05.369Z,18.45
2019-04-25T18:10:35.602Z,16.90
2019-04-25T18:13:05.242Z,18.50
2019-04-25T18:15:47.445Z,19.10
2019-04-25T18:18:29.717Z,19.15
2019-04-25T18:20:58.094Z,20.02
2019-04-25T18:23:39.751Z,19.27
2019-04-25T18:26:26.027Z,20.75
2019-04-25T18:31:35.660Z,18.87
2019-04-25T18:34:05.676Z,19.90
2019-04-25T18:36:45.062Z,20.68
2019-04-25T18:39:15.061Z,18.48
2019-04-25T18:41:48.141Z,19.57
2019-04-25T18:44:16.641Z,19.00
2019-04-25T18:46:47.235Z,20.37
2019-04-25T18:49:15.822Z,21.33
2019-04-25T18:51:54.955Z,21.35
2019-04-25T18:54:22.757Z,22.48
2019-04-25T18:56:58.814Z,20.48
2019-04-25T18:59:28.964Z,20.52
2019-04-25T19:02:05.277Z,18.73
2019-04-25T19:04:38.315Z,20.27
2019-04-25T19:07:06.977Z,18.42
2019-04-25T19:09:35.431Z,18.87
2019-04-25T19:12:03.801Z,17.85
2019-04-25T19:14:32.134Z,18.57
2019-04-25T19:17:00.557Z,17.23
2019-04-25T19:19:28.972Z,18.12
2019-04-25T19:21:57.305Z,18.82
2019-04-25T19:24:25.664Z,18.07
2019-04-25T19:26:54.048Z,18.23
2019-04-25T19:29:22.361Z,16.55
2019-04-25T19:31:53.007Z,19.32
2019-04-25T19:34:21.764Z,17.57
2019-04-25T19:36:51.145Z,18.15
2019-04-25T19:39:41.566Z,17.27
2019-04-25T19:42:14.737Z,17.57
2019-04-25T19:44:43.130Z,16.23
2019-04-25T19:47:11.601Z,15.75
2019-04-25T19:49:40.614Z,15.78
2019-04-25T19:52:10.134Z,15.63
2019-04-25T19:54:38.502Z,14.07
2019-04-25T19:57:06.888Z,15.00
2019-04-25T19:59:35.275Z,14.43
2019-04-25T20:02:05.394Z,14.95
2019-04-25T20:04:41.841Z,14.68
2019-04-25T20:07:18.675Z,13.70
2019-04-25T20:09:54.445Z,12.95
2019-04-25T20:12:24.616Z,13.62
2019-04-25T20:14:53.554Z,14.18
2019-04-25T20:17:22.085Z,14.35
2019-04-25T20:19:50.458Z,13.50
2019-04-25T20:22:18.875Z,13.28
2019-04-25T20:24:48.276Z,13.68
2019-04-25T20:27:16.782Z,13.28
2019-04-25T20:29:46.581Z,13.50
2019-04-25T20:32:15.102Z,13.45
2019-04-25T20:34:43.465Z,12.82
2019-04-25T20:37:11.786Z,12.45
2019-04-25T20:39:40.153Z,11.85
2019-04-25T20:42:08.570Z,11.73
2019-04-25T20:44:36.963Z,10.55
2019-04-25T20:47:05.372Z,10.13
2019-04-25T20:49:33.783Z,11.35
2019-04-25T20:52:02.231Z,10.90
2019-04-25T20:54:31.711Z,10.13
2019-04-25T20:57:00.121Z,9.78
2019-04-25T20:59:28.516Z,9.65
2019-04-25T21:01:57.701Z,10.40
2019-04-25T21:04:44.334Z,9.70
2019-04-25T21:07:12.800Z,10.40
2019-04-25T21:09:42.173Z,10.43
2019-04-25T21:12:10.561Z,8.50
2019-04-25T21:14:52.822Z,9.10
2019-04-25T21:17:35.035Z,8.98
2019-04-25T21:20:05.976Z,9.80
2019-04-25T21:22:34.428Z,8.93
2019-04-25T21:25:05.456Z,9.63
2019-04-25T21:27:33.016Z,8.43
2019-04-25T21:30:02.356Z,9.58
2019-04-25T21:32:32.549Z,9.28
2019-04-25T21:35:01.327Z,9.50
2019-04-25T21:37:29.817Z,9.95
2019-04-25T21:40:12.017Z,10.55
2019-04-25T21:42:45.074Z,11.12
2019-04-25T21:45:13.580Z,10.05
2019-04-25T21:47:42.014Z,10.82
2019-04-25T21:50:10.693Z,11.15
2019-04-25T21:52:39.397Z,12.85
2019-04-25T21:55:07.991Z,12.10
2019-04-25T21:57:36.581Z,11.33
2019-04-25T22:00:10.841Z,12.37
2019-04-25T22:02:39.707Z,13.28
2019-04-25T22:05:08.374Z,13.28
2019-04-25T22:07:37.068Z,12.82
2019-04-25T22:10:07.018Z,13.72
2019-04-25T22:12:35.445Z,13.35
2019-04-25T22:15:07.026Z,13.55
2019-04-25T22:17:35.503Z,13.08
2019-04-25T22:20:06.348Z,13.18
2019-04-25T22:22:35.057Z,12.63
2019-04-25T22:25:04.638Z,12.90
2019-04-25T22:27:36.648Z,12.45
2019-04-25T22:30:09.401Z,13.30
2019-04-25T22:32:42.695Z,14.28
2019-04-25T22:35:16.031Z,12.58
2019-04-25T22:37:44.463Z,13.00
2019-04-25T22:40:12.881Z,13.32
2019-04-25T22:42:41.296Z,12.18
2019-04-25T22:45:09.822Z,12.95
2019-04-25T22:47:38.381Z,12.33
2019-04-25T22:50:06.725Z,12.35
2019-04-25T22:52:35.478Z,13.40
2019-04-25T22:55:06.266Z,12.65
2019-04-25T22:57:35.120Z,12.30
2019-04-25T23:00:05.238Z,13.90
2019-04-25T23:02:47.471Z,13.05
2019-04-25T23:05:19.896Z,13.60
2019-04-25T23:07:48.363Z,13.20
2019-04-25T23:10:16.926Z,14.00
2019-04-25T23:12:45.278Z,13.83
2019-04-25T23:15:13.709Z,13.00
2019-04-25T23:17:42.152Z,13.72
2019-04-25T23:20:11.745Z,12.98
2019-04-25T23:22:40.278Z,14.75
2019-04-25T23:25:10.654Z,13.40
2019-04-25T23:27:55.958Z,15.15
2019-04-25T23:30:29.090Z,14.55
2019-04-25T23:32:57.502Z,14.13
2019-04-25T23:35:29.971Z,14.35
2019-04-25T23:37:55.964Z,15.38
2019-04-25T23:40:24.370Z,14.38
2019-04-25T23:42:53.033Z,14.80
2019-04-25T23:45:21.509Z,14.73
2019-04-25T23:47:49.856Z,14.78
2019-04-25T23:50:18.523Z,15.53
2019-04-25T23:52:46.925Z,16.48
2019-04-25T23:55:15.514Z,14.80
2019-04-25T23:57:43.986Z,15.00
